Framingham, Massachusetts
Current Conditions -  °F | °C
As of 5:53 PM on Thursday 18 Dec 2014 (Local Time) from KOWD Reporting Station
Overcast Overcast  
Wind Chill: 34°   Ceiling: 3700
Heat Index: 40°   Visibility: 10mi
Dew Point: 28°   Wind: 8mph
Humidity: 63%   Direction: 270°W
Pressure: 29.83"   Gusts: NA
Location:  42.28°N, 71.42°W
Report Text: KOWD 182253Z 27007KT 10SM OVC037 04/M02 A2983 RMK AO2 SLP103 T00441022
Loading
Personal Weather Stations






























Interactive Weather Map New forecast layout! Learn more

10-Day Weather Forecast

Advertisements
Track Severe Weather on mobile